Time;durP1;ratioP1;P1;durP2;ratioP2;P2;SDS_P1;SDS_P2;PMS_P1;PMS_P2;Temp;Humidity;BMP_temperature;BMP_pressure;BME280_temperature;BME280_humidity;BME280_pressure;Samples;Min_cycle;Max_cycle;Signal;HPM_P1;HPM_P2
2022/07/28 00:02:19;;;;;;;3.45;1.90;;;;;;;;;;6219324;23;20323;-85
2022/07/28 00:04:45;;;;;;;3.90;1.83;;;;;;;;;;6219808;23;20072;-86
2022/07/28 00:07:11;;;;;;;4.15;1.98;;;;;;;;;;6192919;23;20027;-86
2022/07/28 00:09:37;;;;;;;3.40;2.28;;;;;;;;;;6194768;23;20370;-86
2022/07/28 00:12:03;;;;;;;5.28;1.95;;;;;;;;;;6194161;23;20466;-86
2022/07/28 00:14:29;;;;;;;5.72;1.77;;;;;;;;;;6193787;23;20068;-85
2022/07/28 00:16:56;;;;;;;3.28;1.65;;;;;;;;;;6195916;23;20063;-85
2022/07/28 00:19:24;;;;;;;7.88;2.05;;;;;;;;;;6195914;23;20078;-85
2022/07/28 00:21:49;;;;;;;4.85;1.92;;;;;;;;;;6217382;23;20039;-85
2022/07/28 00:24:15;;;;;;;4.80;2.10;;;;;;;;;;6195563;23;20023;-85
2022/07/28 00:26:41;;;;;;;3.53;1.90;;;;;;;;;;6219328;23;20062;-86
2022/07/28 00:29:07;;;;;;;4.38;2.40;;;;;;;;;;6195804;23;20428;-85
2022/07/28 00:31:33;;;;;;;4.93;2.45;;;;;;;;;;6195398;23;20445;-86
2022/07/28 00:33:59;;;;;;;2.72;1.75;;;;;;;;;;6193315;23;20043;-86
2022/07/28 00:36:25;;;;;;;5.13;1.88;;;;;;;;;;6245906;23;20027;-85
2022/07/28 00:38:50;;;;;;;3.90;2.13;;;;;;;;;;6245373;23;20051;-85
2022/07/28 00:41:18;;;;;;;4.22;2.30;;;;;;;;;;6221602;22;20011;-85
2022/07/28 00:43:46;;;;;;;5.30;2.42;;;;;;;;;;6220080;23;20026;-86
2022/07/28 00:46:13;;;;;;;4.90;2.58;;;;;;;;;;6193091;23;20016;-86
2022/07/28 00:48:42;;;;;;;6.70;2.28;;;;;;;;;;6193757;23;20112;-85
2022/07/28 00:51:09;;;;;;;4.65;2.10;;;;;;;;;;6194962;23;20016;-86
2022/07/28 00:53:38;;;;;;;3.60;2.22;;;;;;;;;;6195236;23;20016;-86
2022/07/28 00:56:05;;;;;;;6.32;1.80;;;;;;;;;;6218478;22;20055;-85
2022/07/28 00:58:30;;;;;;;3.78;1.98;;;;;;;;;;6194325;23;20095;-85
2022/07/28 01:00:57;;;;;;;5.25;2.08;;;;;;;;;;6245290;23;20477;-86
2022/07/28 01:03:23;;;;;;;3.88;2.33;;;;;;;;;;6192230;23;20024;-86
2022/07/28 01:06:20;;;;;;;4.40;2.00;;;;;;;;;;6219130;23;20016;-85
2022/07/28 01:09:02;;;;;;;4.18;2.05;;;;;;;;;;6245120;23;20044;-85
2022/07/28 01:11:52;;;;;;;4.03;2.08;;;;;;;;;;6219931;23;20461;-85
2022/07/28 01:14:37;;;;;;;5.68;1.98;;;;;;;;;;6220567;23;20016;-85
2022/07/28 01:17:14;;;;;;;5.43;2.58;;;;;;;;;;6247007;23;20523;-86
2022/07/28 01:19:48;;;;;;;4.97;2.08;;;;;;;;;;6196114;23;20031;-86
2022/07/28 01:22:17;;;;;;;4.15;1.85;;;;;;;;;;6220880;23;20103;-86
2022/07/28 01:25:24;;;;;;;3.92;1.98;;;;;;;;;;6221161;23;20020;-86
2022/07/28 01:27:59;;;;;;;5.10;2.17;;;;;;;;;;6125932;23;20022;-86
2022/07/28 01:30:41;;;;;;;3.70;2.03;;;;;;;;;;6204218;23;20040;-86
2022/07/28 01:33:26;;;;;;;5.93;1.88;;;;;;;;;;6193181;23;20016;-86
2022/07/28 01:36:01;;;;;;;5.30;2.22;;;;;;;;;;6163734;23;20021;-86
2022/07/28 01:38:28;;;;;;;7.47;1.92;;;;;;;;;;6191669;23;20021;-86
2022/07/28 01:40:55;;;;;;;6.70;2.15;;;;;;;;;;6162606;23;20027;-85
2022/07/28 01:43:26;;;;;;;5.72;2.20;;;;;;;;;;6186043;23;20096;-86
2022/07/28 01:45:54;;;;;;;6.07;2.22;;;;;;;;;;6188445;23;20024;-86
2022/07/28 01:48:22;;;;;;;4.68;2.42;;;;;;;;;;6213398;23;20020;-86
2022/07/28 01:50:48;;;;;;;4.18;1.83;;;;;;;;;;6192447;23;20039;-86
2022/07/28 01:53:16;;;;;;;2.80;1.98;;;;;;;;;;6196974;23;20547;-86
2022/07/28 01:55:42;;;;;;;3.78;2.03;;;;;;;;;;6194130;23;20020;-86
2022/07/28 01:58:09;;;;;;;3.35;2.10;;;;;;;;;;6221054;22;20016;-85
2022/07/28 02:00:35;;;;;;;4.35;2.03;;;;;;;;;;6195890;23;20020;-86
2022/07/28 02:03:04;;;;;;;4.40;2.00;;;;;;;;;;6194202;23;20078;-86
2022/07/28 02:05:31;;;;;;;2.78;1.95;;;;;;;;;;6197236;23;20024;-86
2022/07/28 02:07:59;;;;;;;6.13;2.20;;;;;;;;;;6194236;23;20028;-85
2022/07/28 02:10:25;;;;;;;2.97;2.15;;;;;;;;;;6191984;23;20058;-86
2022/07/28 02:12:52;;;;;;;4.63;2.47;;;;;;;;;;6185544;23;20026;-86
2022/07/28 02:15:21;;;;;;;5.65;2.33;;;;;;;;;;6189817;23;20023;-86
2022/07/28 02:17:49;;;;;;;5.93;2.22;;;;;;;;;;6191222;23;20024;-86
2022/07/28 02:20:15;;;;;;;3.30;2.10;;;;;;;;;;6195395;23;20016;-86
2022/07/28 02:22:42;;;;;;;6.20;2.20;;;;;;;;;;6190242;23;20024;-86
2022/07/28 02:25:08;;;;;;;3.13;1.85;;;;;;;;;;6195219;23;20016;-85
2022/07/28 02:27:34;;;;;;;4.43;2.40;;;;;;;;;;6195133;23;20020;-85
2022/07/28 02:30:05;;;;;;;5.22;2.20;;;;;;;;;;6221541;23;20477;-85
2022/07/28 02:32:56;;;;;;;3.78;2.00;;;;;;;;;;6218621;23;20006;-86
2022/07/28 02:35:44;;;;;;;4.78;2.65;;;;;;;;;;6196379;23;20016;-85
2022/07/28 02:38:44;;;;;;;5.38;2.40;;;;;;;;;;6193425;23;20131;-85
2022/07/28 02:41:15;;;;;;;3.58;2.10;;;;;;;;;;6220694;22;20088;-86
2022/07/28 02:43:44;;;;;;;3.55;2.22;;;;;;;;;;6221858;23;20497;-86
2022/07/28 02:46:13;;;;;;;3.15;2.08;;;;;;;;;;6194198;23;20016;-86
2022/07/28 02:48:41;;;;;;;3.63;1.90;;;;;;;;;;6195753;23;20023;-86
2022/07/28 02:51:08;;;;;;;5.00;2.25;;;;;;;;;;6197717;23;20087;-86
2022/07/28 02:53:34;;;;;;;5.13;2.13;;;;;;;;;;6197158;23;20066;-85
2022/07/28 02:56:01;;;;;;;7.43;2.65;;;;;;;;;;6221322;23;20091;-85
2022/07/28 02:58:27;;;;;;;3.63;2.30;;;;;;;;;;6217945;23;20119;-85
2022/07/28 03:00:55;;;;;;;5.75;2.50;;;;;;;;;;6214958;23;20342;-86
2022/07/28 03:03:23;;;;;;;7.82;2.55;;;;;;;;;;6209585;23;20375;-86
2022/07/28 03:05:51;;;;;;;5.40;2.40;;;;;;;;;;6218033;23;20016;-87
2022/07/28 03:08:17;;;;;;;6.38;2.55;;;;;;;;;;6214897;23;20016;-87
2022/07/28 03:10:43;;;;;;;7.45;2.65;;;;;;;;;;6215857;23;20036;-86
2022/07/28 03:13:12;;;;;;;5.55;2.72;;;;;;;;;;6215722;23;20040;-87
2022/07/28 03:15:42;;;;;;;6.60;2.72;;;;;;;;;;6216285;23;20093;-86
2022/07/28 03:18:08;;;;;;;4.28;2.20;;;;;;;;;;6199253;23;20034;-86
2022/07/28 03:20:35;;;;;;;5.07;2.33;;;;;;;;;;6166444;23;20036;-86
2022/07/28 03:23:03;;;;;;;4.20;2.30;;;;;;;;;;6190254;23;20044;-86
2022/07/28 03:25:37;;;;;;;4.53;2.97;;;;;;;;;;6191617;23;20088;-86
2022/07/28 03:28:05;;;;;;;7.57;2.20;;;;;;;;;;6215111;23;20095;-86
2022/07/28 03:30:36;;;;;;;4.82;2.20;;;;;;;;;;6166824;23;20027;-86
2022/07/28 03:33:02;;;;;;;5.28;2.72;;;;;;;;;;6180998;23;20394;-86
2022/07/28 03:35:31;;;;;;;6.43;2.63;;;;;;;;;;6215190;23;20039;-86
2022/07/28 03:38:06;;;;;;;4.90;2.25;;;;;;;;;;6214061;23;20024;-86
2022/07/28 03:40:33;;;;;;;8.97;3.17;;;;;;;;;;6214886;23;20012;-87
2022/07/28 03:43:02;;;;;;;6.70;2.35;;;;;;;;;;6214919;23;20095;-86
2022/07/28 03:45:28;;;;;;;5.25;2.63;;;;;;;;;;6185588;23;20020;-86
2022/07/28 03:47:56;;;;;;;6.22;2.53;;;;;;;;;;6201095;23;20012;-86
2022/07/28 03:50:24;;;;;;;4.30;2.70;;;;;;;;;;6189198;23;20421;-85
2022/07/28 03:52:50;;;;;;;4.53;2.17;;;;;;;;;;6174349;23;20025;-86
2022/07/28 03:55:22;;;;;;;7.18;3.47;;;;;;;;;;6197546;23;20016;-86
2022/07/28 03:58:11;;;;;;;6.00;2.60;;;;;;;;;;6192576;22;20023;-86
2022/07/28 04:00:38;;;;;;;6.28;2.03;;;;;;;;;;6167076;23;20004;-86
2022/07/28 04:03:08;;;;;;;4.85;2.33;;;;;;;;;;6156816;23;20511;-86
2022/07/28 04:05:36;;;;;;;6.13;2.47;;;;;;;;;;6164970;23;20024;-86
2022/07/28 04:08:02;;;;;;;5.60;2.33;;;;;;;;;;6157412;23;20140;-86
2022/07/28 04:10:28;;;;;;;5.65;2.63;;;;;;;;;;6202680;23;20227;-85
2022/07/28 04:12:56;;;;;;;3.67;2.10;;;;;;;;;;6189647;23;20393;-86
2022/07/28 04:15:24;;;;;;;5.97;2.50;;;;;;;;;;6217184;23;20023;-86
2022/07/28 04:17:51;;;;;;;5.38;2.45;;;;;;;;;;6186865;23;20323;-86
2022/07/28 04:20:17;;;;;;;5.72;2.85;;;;;;;;;;6215211;22;20020;-86
2022/07/28 04:22:45;;;;;;;8.00;3.33;;;;;;;;;;6189430;23;20024;-87
2022/07/28 04:25:14;;;;;;;10.60;3.58;;;;;;;;;;6189762;23;20012;-86
2022/07/28 04:27:42;;;;;;;7.55;2.90;;;;;;;;;;6191012;23;20008;-86
2022/07/28 04:30:23;;;;;;;5.80;2.75;;;;;;;;;;6189357;23;20378;-86
2022/07/28 04:32:49;;;;;;;10.40;3.05;;;;;;;;;;6177765;23;20020;-86
2022/07/28 04:35:17;;;;;;;6.70;2.70;;;;;;;;;;6184930;23;20082;-86
2022/07/28 04:37:50;;;;;;;4.47;2.60;;;;;;;;;;6185425;23;20008;-86
2022/07/28 04:40:17;;;;;;;9.30;3.10;;;;;;;;;;6186677;22;20027;-87
2022/07/28 04:42:57;;;;;;;6.55;2.92;;;;;;;;;;6212635;23;20020;-86
2022/07/28 04:45:22;;;;;;;8.95;3.03;;;;;;;;;;6188311;23;20410;-86
2022/07/28 04:47:50;;;;;;;6.28;3.15;;;;;;;;;;6165788;23;20140;-85
2022/07/28 04:50:19;;;;;;;12.70;3.83;;;;;;;;;;6166818;23;20016;-88
2022/07/28 04:52:48;;;;;;;8.52;3.25;;;;;;;;;;6185364;23;20031;-87
2022/07/28 04:55:20;;;;;;;6.88;3.15;;;;;;;;;;6185944;22;20051;-87
2022/07/28 04:58:02;;;;;;;8.23;3.15;;;;;;;;;;6189045;23;20031;-86
2022/07/28 05:00:28;;;;;;;5.88;2.60;;;;;;;;;;6195431;23;20016;-86
2022/07/28 05:02:57;;;;;;;7.40;3.10;;;;;;;;;;6223088;23;20020;-85
2022/07/28 05:05:23;;;;;;;5.80;2.55;;;;;;;;;;6215501;23;20024;-85
2022/07/28 05:07:49;;;;;;;3.75;2.42;;;;;;;;;;6197337;23;20020;-86
2022/07/28 05:10:15;;;;;;;6.90;3.20;;;;;;;;;;6193580;23;20027;-87
2022/07/28 05:12:41;;;;;;;4.35;2.40;;;;;;;;;;6216340;22;20020;-86
2022/07/28 05:15:08;;;;;;;6.28;2.63;;;;;;;;;;6219181;23;20080;-87
2022/07/28 05:17:35;;;;;;;6.47;2.75;;;;;;;;;;6191387;23;20397;-87
2022/07/28 05:20:01;;;;;;;9.00;2.83;;;;;;;;;;6191174;22;20035;-86
2022/07/28 05:22:27;;;;;;;4.43;2.63;;;;;;;;;;6213606;23;20032;-85
2022/07/28 05:24:56;;;;;;;5.78;2.33;;;;;;;;;;6182541;23;20027;-87
2022/07/28 05:27:22;;;;;;;4.50;2.35;;;;;;;;;;6176057;23;20416;-84
2022/07/28 05:29:48;;;;;;;8.98;2.85;;;;;;;;;;6191684;23;20462;-88
2022/07/28 05:32:14;;;;;;;9.93;3.03;;;;;;;;;;6215121;22;20078;-88
2022/07/28 05:34:44;;;;;;;5.28;1.90;;;;;;;;;;6175111;23;20027;-88
2022/07/28 05:37:10;;;;;;;29.08;4.72;;;;;;;;;;6189184;23;20469;-87
2022/07/28 05:39:36;;;;;;;8.80;2.30;;;;;;;;;;6173210;23;20040;-87
2022/07/28 05:42:02;;;;;;;21.73;4.85;;;;;;;;;;6190260;23;20028;-87
2022/07/28 05:44:28;;;;;;;14.90;3.78;;;;;;;;;;6215366;22;20016;-86
2022/07/28 05:46:53;;;;;;;5.75;2.10;;;;;;;;;;6213982;23;20012;-87
2022/07/28 05:49:20;;;;;;;10.52;2.67;;;;;;;;;;6191357;23;20016;-87
2022/07/28 05:51:46;;;;;;;5.22;2.20;;;;;;;;;;6187831;23;20469;-87
2022/07/28 05:54:12;;;;;;;3.72;1.85;;;;;;;;;;6192782;22;20048;-87
2022/07/28 05:56:38;;;;;;;5.85;1.45;;;;;;;;;;6122783;23;20028;-87
2022/07/28 05:59:08;;;;;;;4.90;1.80;;;;;;;;;;6176667;23;20470;-86
2022/07/28 06:01:37;;;;;;;5.22;1.52;;;;;;;;;;6215048;22;20077;-86
2022/07/28 06:04:03;;;;;;;10.27;2.10;;;;;;;;;;6188259;23;20016;-84
2022/07/28 06:06:29;;;;;;;9.20;1.95;;;;;;;;;;6183649;23;20020;-86
2022/07/28 06:08:54;;;;;;;7.97;1.70;;;;;;;;;;6157715;23;20104;-84
2022/07/28 06:11:22;;;;;;;5.60;2.00;;;;;;;;;;6207618;23;20012;-85
2022/07/28 06:13:48;;;;;;;3.55;1.50;;;;;;;;;;6189026;23;20060;-85
2022/07/28 06:16:14;;;;;;;9.02;1.77;;;;;;;;;;6213626;22;20017;-86
2022/07/28 06:18:39;;;;;;;6.95;1.60;;;;;;;;;;6188569;23;20051;-86
2022/07/28 06:21:08;;;;;;;6.22;2.05;;;;;;;;;;6172362;23;20020;-87
2022/07/28 06:23:34;;;;;;;4.53;1.50;;;;;;;;;;6169936;23;20128;-87
2022/07/28 06:26:00;;;;;;;7.30;1.60;;;;;;;;;;6162125;23;20501;-86
2022/07/28 06:28:25;;;;;;;6.65;1.85;;;;;;;;;;6213255;23;20486;-85
2022/07/28 06:30:51;;;;;;;6.47;2.15;;;;;;;;;;6215108;22;20028;-85
2022/07/28 06:33:17;;;;;;;3.90;1.40;;;;;;;;;;6213825;23;20371;-86
2022/07/28 06:35:43;;;;;;;4.25;1.38;;;;;;;;;;6213512;22;20039;-86
2022/07/28 06:38:09;;;;;;;7.32;1.77;;;;;;;;;;6188343;23;20016;-87
2022/07/28 06:40:35;;;;;;;6.68;1.40;;;;;;;;;;6198292;23;20023;-87
2022/07/28 06:43:00;;;;;;;2.42;1.27;;;;;;;;;;6173039;23;20024;-89
2022/07/28 06:45:35;;;;;;;6.18;1.55;;;;;;;;;;6156607;23;20051;-88
2022/07/28 06:48:03;;;;;;;6.30;1.65;;;;;;;;;;6120863;23;20021;-88
2022/07/28 06:50:29;;;;;;;5.72;2.05;;;;;;;;;;6092155;23;20021;-86
2022/07/28 06:52:56;;;;;;;7.07;1.90;;;;;;;;;;6157027;23;20024;-86
2022/07/28 06:55:22;;;;;;;6.13;1.73;;;;;;;;;;6162519;23;20371;-87
2022/07/28 06:57:48;;;;;;;5.55;1.73;;;;;;;;;;6138512;23;20471;-87
2022/07/28 07:00:14;;;;;;;11.23;1.60;;;;;;;;;;6186962;23;20068;-87
2022/07/28 07:02:41;;;;;;;5.13;1.67;;;;;;;;;;6174079;23;20022;-86
2022/07/28 07:05:09;;;;;;;5.60;1.42;;;;;;;;;;6211983;23;20016;-87
2022/07/28 07:07:35;;;;;;;7.95;1.95;;;;;;;;;;6212297;23;20024;-86
2022/07/28 07:10:07;;;;;;;6.25;1.90;;;;;;;;;;6187603;23;20043;-87
2022/07/28 07:12:36;;;;;;;5.28;1.77;;;;;;;;;;6184324;23;20385;-85
2022/07/28 07:15:03;;;;;;;8.45;1.52;;;;;;;;;;6213012;23;20099;-86
2022/07/28 07:17:29;;;;;;;4.68;1.45;;;;;;;;;;6212194;22;20092;-85
2022/07/28 07:19:55;;;;;;;5.45;1.92;;;;;;;;;;6172624;23;20020;-85
2022/07/28 07:22:22;;;;;;;4.43;1.45;;;;;;;;;;6189436;23;20070;-87
2022/07/28 07:24:48;;;;;;;4.95;1.83;;;;;;;;;;6210765;22;20035;-87
2022/07/28 07:27:14;;;;;;;7.60;1.85;;;;;;;;;;6167218;23;20022;-87
2022/07/28 07:29:40;;;;;;;3.97;2.17;;;;;;;;;;6191289;23;20008;-86
2022/07/28 07:32:06;;;;;;;7.80;1.77;;;;;;;;;;6209640;23;20027;-86
2022/07/28 07:34:31;;;;;;;5.13;1.40;;;;;;;;;;6212364;23;20339;-86
2022/07/28 07:37:03;;;;;;;4.45;1.55;;;;;;;;;;6185918;23;20083;-87
2022/07/28 07:39:28;;;;;;;3.78;1.50;;;;;;;;;;6183516;23;20047;-87
2022/07/28 07:41:54;;;;;;;4.85;1.35;;;;;;;;;;6212367;22;20016;-87
2022/07/28 07:44:20;;;;;;;5.13;1.75;;;;;;;;;;6187085;23;20046;-87
2022/07/28 07:46:46;;;;;;;9.85;1.77;;;;;;;;;;6212723;23;20016;-86
2022/07/28 07:49:12;;;;;;;5.60;1.40;;;;;;;;;;6212196;22;20105;-86
2022/07/28 07:51:47;;;;;;;5.70;2.00;;;;;;;;;;6186215;23;20004;-87
2022/07/28 07:54:12;;;;;;;6.28;1.70;;;;;;;;;;6186668;23;20039;-86
2022/07/28 07:56:38;;;;;;;8.88;1.95;;;;;;;;;;6186863;22;20083;-85
2022/07/28 07:59:05;;;;;;;7.97;1.85;;;;;;;;;;6181922;23;20102;-86
2022/07/28 08:01:41;;;;;;;8.45;2.40;;;;;;;;;;6195683;23;20016;-87
2022/07/28 08:04:07;;;;;;;7.38;1.80;;;;;;;;;;6175325;23;20394;-87
2022/07/28 08:06:33;;;;;;;8.07;1.63;;;;;;;;;;6207783;23;20024;-87
2022/07/28 08:08:58;;;;;;;6.43;1.83;;;;;;;;;;6186435;23;20050;-88
2022/07/28 08:11:25;;;;;;;5.00;1.70;;;;;;;;;;6186324;23;20050;-85
2022/07/28 08:13:51;;;;;;;5.28;1.33;;;;;;;;;;6182391;23;20012;-86
2022/07/28 08:16:17;;;;;;;7.95;2.10;;;;;;;;;;6169755;23;20462;-87
2022/07/28 08:18:47;;;;;;;2.58;1.48;;;;;;;;;;6157580;23;20062;-86
2022/07/28 08:21:14;;;;;;;6.70;1.25;;;;;;;;;;6174261;23;20095;-86
2022/07/28 08:23:41;;;;;;;8.40;2.05;;;;;;;;;;6143221;23;20020;-86
2022/07/28 08:26:07;;;;;;;5.28;1.63;;;;;;;;;;6194508;23;20048;-87
2022/07/28 08:28:44;;;;;;;5.78;1.67;;;;;;;;;;6167423;22;20358;-87
2022/07/28 08:31:10;;;;;;;6.25;1.60;;;;;;;;;;6161527;23;20017;-86
2022/07/28 08:33:35;;;;;;;6.20;1.77;;;;;;;;;;6150359;23;20016;-87
2022/07/28 08:36:05;;;;;;;5.90;1.40;;;;;;;;;;6122045;23;20116;-87
2022/07/28 08:38:31;;;;;;;6.40;1.50;;;;;;;;;;6171332;23;20016;-88
2022/07/28 08:40:58;;;;;;;6.45;1.63;;;;;;;;;;6211552;23;20074;-88
2022/07/28 08:43:34;;;;;;;6.40;1.67;;;;;;;;;;6179913;23;20494;-87
2022/07/28 08:46:05;;;;;;;5.05;1.15;;;;;;;;;;6205871;23;20047;-87
2022/07/28 08:48:47;;;;;;;5.32;1.60;;;;;;;;;;6150203;23;20081;-86
2022/07/28 08:51:14;;;;;;;5.72;1.55;;;;;;;;;;6170178;22;20076;-86
2022/07/28 08:53:40;;;;;;;3.75;1.38;;;;;;;;;;6163650;23;20470;-87
2022/07/28 08:56:12;;;;;;;4.65;1.20;;;;;;;;;;6180363;23;20016;-87
2022/07/28 08:59:01;;;;;;;6.25;1.33;;;;;;;;;;6160554;23;20455;-87
2022/07/28 09:01:39;;;;;;;7.10;1.60;;;;;;;;;;6155377;23;20016;-86
2022/07/28 09:04:26;;;;;;;3.15;1.27;;;;;;;;;;6135833;22;20159;-88
2022/07/28 09:07:20;;;;;;;5.03;1.30;;;;;;;;;;6181343;23;20551;-88
2022/07/28 09:09:52;;;;;;;7.03;1.50;;;;;;;;;;6180971;23;20074;-88
2022/07/28 09:12:25;;;;;;;5.63;1.55;;;;;;;;;;6138811;23;20090;-86
2022/07/28 09:14:51;;;;;;;5.43;1.30;;;;;;;;;;6172941;23;20022;-85
2022/07/28 09:17:18;;;;;;;7.72;1.40;;;;;;;;;;6161917;23;20013;-87
2022/07/28 09:19:44;;;;;;;4.72;1.15;;;;;;;;;;6176775;23;20021;-86
2022/07/28 09:22:12;;;;;;;8.05;1.92;;;;;;;;;;6140994;23;20583;-86
2022/07/28 09:24:44;;;;;;;4.15;1.67;;;;;;;;;;6144806;23;20040;-88
2022/07/28 09:27:13;;;;;;;5.15;1.55;;;;;;;;;;6163506;23;20027;-86
2022/07/28 09:29:46;;;;;;;4.80;1.67;;;;;;;;;;6186493;23;20016;-86
2022/07/28 09:32:13;;;;;;;7.32;1.38;;;;;;;;;;6188775;23;20032;-86
2022/07/28 09:34:42;;;;;;;7.40;1.50;;;;;;;;;;6187982;23;20015;-87
2022/07/28 09:37:25;;;;;;;4.25;1.58;;;;;;;;;;6211740;23;20012;-86
2022/07/28 09:39:53;;;;;;;4.65;1.88;;;;;;;;;;6152310;23;20419;-87
2022/07/28 09:42:19;;;;;;;5.32;1.38;;;;;;;;;;6153991;23;20019;-87
2022/07/28 09:44:46;;;;;;;6.57;1.33;;;;;;;;;;6157877;23;20367;-87
2022/07/28 09:47:31;;;;;;;3.83;1.27;;;;;;;;;;6149500;23;20393;-87
2022/07/28 09:49:58;;;;;;;4.85;1.83;;;;;;;;;;6136993;23;20076;-86
2022/07/28 09:52:36;;;;;;;8.00;1.40;;;;;;;;;;6151717;23;20061;-87
2022/07/28 09:55:09;;;;;;;3.83;1.48;;;;;;;;;;6175138;23;20024;-86
2022/07/28 09:57:38;;;;;;;3.75;1.27;;;;;;;;;;6143199;23;20312;-86
2022/07/28 10:00:08;;;;;;;5.75;1.48;;;;;;;;;;6186564;23;20389;-87
2022/07/28 10:02:34;;;;;;;5.63;1.40;;;;;;;;;;6198005;23;20043;-86
2022/07/28 10:05:00;;;;;;;5.82;1.17;;;;;;;;;;6186047;23;20508;-86
2022/07/28 10:07:28;;;;;;;5.68;1.20;;;;;;;;;;6185865;23;20024;-86
2022/07/28 10:10:10;;;;;;;3.00;1.20;;;;;;;;;;6189692;23;20293;-87
2022/07/28 10:12:37;;;;;;;6.82;1.20;;;;;;;;;;6190160;23;20016;-85
2022/07/28 10:17:58;;;;;;;5.70;1.55;;;;;;;;;;6240578;23;20015;-86
2022/07/28 10:20:24;;;;;;;3.97;1.13;;;;;;;;;;6189975;23;20020;-85
2022/07/28 10:22:52;;;;;;;4.75;1.33;;;;;;;;;;6186162;23;20001;-86
2022/07/28 10:25:22;;;;;;;5.30;1.20;;;;;;;;;;6239709;22;20031;-84
2022/07/28 10:27:48;;;;;;;3.33;1.10;;;;;;;;;;6186097;23;20023;-85
2022/07/28 10:30:14;;;;;;;6.00;1.58;;;;;;;;;;6208783;23;20401;-85
2022/07/28 10:32:45;;;;;;;4.28;1.30;;;;;;;;;;6188882;23;20099;-85
2022/07/28 10:35:14;;;;;;;3.90;1.08;;;;;;;;;;6187605;23;20016;-86
2022/07/28 10:37:48;;;;;;;5.30;1.30;;;;;;;;;;6212472;23;20012;-85
2022/07/28 10:40:16;;;;;;;4.60;1.20;;;;;;;;;;6188445;23;20469;-86
2022/07/28 10:42:42;;;;;;;4.80;1.40;;;;;;;;;;6211193;23;20016;-86
2022/07/28 10:45:12;;;;;;;4.95;1.55;;;;;;;;;;6213181;23;20019;-85
2022/07/28 10:47:38;;;;;;;4.40;1.60;;;;;;;;;;6187683;23;20016;-86
2022/07/28 10:50:07;;;;;;;4.75;1.60;;;;;;;;;;6188820;23;20031;-87
2022/07/28 10:52:34;;;;;;;8.45;1.73;;;;;;;;;;6215725;23;20085;-84
2022/07/28 10:55:15;;;;;;;2.97;1.42;;;;;;;;;;6190528;23;20026;-86
2022/07/28 10:57:54;;;;;;;4.18;1.38;;;;;;;;;;6214652;23;20028;-84
2022/07/28 11:00:24;;;;;;;5.18;1.77;;;;;;;;;;6189299;23;20030;-85
2022/07/28 11:02:55;;;;;;;3.30;1.40;;;;;;;;;;6186709;23;20217;-86
2022/07/28 11:05:32;;;;;;;6.30;1.13;;;;;;;;;;6208094;23;20020;-85
2022/07/28 11:08:28;;;;;;;4.47;1.38;;;;;;;;;;6209053;23;20020;-83
2022/07/28 11:10:56;;;;;;;3.67;1.33;;;;;;;;;;6197245;23;20078;-87
2022/07/28 11:13:30;;;;;;;3.22;1.40;;;;;;;;;;6211443;23;20079;-86
2022/07/28 11:15:57;;;;;;;3.72;1.48;;;;;;;;;;6209615;23;20027;-84
2022/07/28 11:18:23;;;;;;;2.90;1.13;;;;;;;;;;6186819;23;20043;-85
2022/07/28 11:20:52;;;;;;;7.47;1.60;;;;;;;;;;6210359;23;20043;-87
2022/07/28 11:23:54;;;;;;;4.38;1.67;;;;;;;;;;6239304;23;20078;-87
2022/07/28 11:26:19;;;;;;;3.65;1.30;;;;;;;;;;6168451;23;20024;-85
2022/07/28 11:29:04;;;;;;;3.55;1.25;;;;;;;;;;6211251;23;20591;-86
2022/07/28 11:31:45;;;;;;;4.10;1.20;;;;;;;;;;6181059;23;20013;-85
2022/07/28 11:34:22;;;;;;;3.60;1.05;;;;;;;;;;6198617;23;20023;-86
2022/07/28 11:37:08;;;;;;;4.93;1.40;;;;;;;;;;6163895;23;20102;-84
2022/07/28 11:39:37;;;;;;;5.10;1.45;;;;;;;;;;6152255;23;20421;-86
2022/07/28 11:42:29;;;;;;;4.35;1.48;;;;;;;;;;6175565;23;20240;-87
2022/07/28 11:44:55;;;;;;;2.25;1.17;;;;;;;;;;6155640;23;20020;-85
2022/07/28 11:47:23;;;;;;;7.57;1.48;;;;;;;;;;6149463;23;20051;-87
2022/07/28 11:50:15;;;;;;;6.25;1.50;;;;;;;;;;6183790;23;20434;-86
2022/07/28 11:52:55;;;;;;;7.95;1.55;;;;;;;;;;6213004;23;20098;-87
2022/07/28 11:55:22;;;;;;;4.50;1.20;;;;;;;;;;6210243;23;20319;-86
2022/07/28 11:57:48;;;;;;;5.20;1.20;;;;;;;;;;6212777;23;20443;-87
2022/07/28 12:00:22;;;;;;;3.65;1.15;;;;;;;;;;6188175;23;20091;-87
2022/07/28 12:02:48;;;;;;;5.22;1.30;;;;;;;;;;6188004;23;20040;-88
2022/07/28 12:05:16;;;;;;;5.18;1.33;;;;;;;;;;6188193;23;20012;-87
2022/07/28 12:07:50;;;;;;;2.08;1.20;;;;;;;;;;6187022;23;20390;-87
2022/07/28 12:10:25;;;;;;;4.68;1.38;;;;;;;;;;6212181;23;20210;-85
2022/07/28 12:12:55;;;;;;;2.13;1.03;;;;;;;;;;6211445;23;20447;-85
2022/07/28 12:15:21;;;;;;;5.03;1.35;;;;;;;;;;6182859;23;20090;-86
2022/07/28 12:17:48;;;;;;;5.43;1.52;;;;;;;;;;6179187;23;20027;-87
2022/07/28 12:20:16;;;;;;;4.90;1.50;;;;;;;;;;6186409;23;20257;-86
2022/07/28 12:23:05;;;;;;;3.97;1.00;;;;;;;;;;6179687;23;20016;-85
2022/07/28 12:25:40;;;;;;;5.07;1.08;;;;;;;;;;6173296;23;20186;-84
2022/07/28 12:28:16;;;;;;;4.57;1.35;;;;;;;;;;6189610;23;20008;-86
2022/07/28 12:30:41;;;;;;;5.68;2.08;;;;;;;;;;6186973;23;20373;-88
2022/07/28 12:33:24;;;;;;;2.53;1.25;;;;;;;;;;6204563;22;20080;-87
2022/07/28 12:35:57;;;;;;;4.95;1.10;;;;;;;;;;6212916;23;20518;-87
2022/07/28 12:38:24;;;;;;;6.68;1.38;;;;;;;;;;6212815;23;20016;-87
2022/07/28 12:40:51;;;;;;;3.03;1.25;;;;;;;;;;6186775;22;20020;-88
2022/07/28 12:43:20;;;;;;;4.43;1.65;;;;;;;;;;6186286;23;20036;-87
2022/07/28 12:45:47;;;;;;;5.15;1.50;;;;;;;;;;6182315;23;20028;-87
2022/07/28 12:48:13;;;;;;;4.78;1.35;;;;;;;;;;6182772;23;20036;-88
2022/07/28 12:50:39;;;;;;;4.75;1.40;;;;;;;;;;6201132;23;20276;-88
2022/07/28 12:53:13;;;;;;;6.03;1.60;;;;;;;;;;6206729;23;20016;-88
2022/07/28 12:55:42;;;;;;;3.95;1.40;;;;;;;;;;6185189;23;20024;-87
2022/07/28 12:58:20;;;;;;;5.97;1.75;;;;;;;;;;6188778;23;20016;-87
2022/07/28 13:00:49;;;;;;;2.30;1.23;;;;;;;;;;6189311;23;20024;-86
2022/07/28 13:03:28;;;;;;;4.28;1.42;;;;;;;;;;6232710;23;20016;-87
2022/07/28 13:06:01;;;;;;;2.55;1.30;;;;;;;;;;6197404;23;20012;-87
2022/07/28 13:08:48;;;;;;;5.10;1.50;;;;;;;;;;6214853;23;20022;-85
2022/07/28 13:11:15;;;;;;;4.63;1.50;;;;;;;;;;6214265;23;20026;-87
2022/07/28 13:13:49;;;;;;;5.43;1.67;;;;;;;;;;6213639;23;20131;-88
2022/07/28 13:16:18;;;;;;;6.65;1.60;;;;;;;;;;6191568;23;20377;-86
2022/07/28 13:18:46;;;;;;;2.92;1.33;;;;;;;;;;6205545;23;20378;-87
2022/07/28 13:21:15;;;;;;;5.97;1.63;;;;;;;;;;6195881;23;20039;-87
2022/07/28 13:23:42;;;;;;;3.67;1.23;;;;;;;;;;6199687;23;20011;-85
2022/07/28 13:26:08;;;;;;;8.70;1.55;;;;;;;;;;6200789;23;20007;-87
2022/07/28 13:28:34;;;;;;;4.75;1.65;;;;;;;;;;6223181;23;20039;-86
2022/07/28 13:31:03;;;;;;;3.28;1.30;;;;;;;;;;6201659;23;20027;-86
2022/07/28 13:33:29;;;;;;;4.00;1.20;;;;;;;;;;6222025;23;20046;-84
2022/07/28 13:35:54;;;;;;;4.38;1.30;;;;;;;;;;6219724;23;20523;-86
2022/07/28 13:38:20;;;;;;;4.22;1.55;;;;;;;;;;6196030;23;20023;-86
2022/07/28 13:40:46;;;;;;;4.82;1.48;;;;;;;;;;6216019;23;20016;-87
2022/07/28 13:43:12;;;;;;;1.13;1.02;;;;;;;;;;6197498;23;20021;-87
2022/07/28 13:45:37;;;;;;;3.70;1.20;;;;;;;;;;6214984;23;20079;-86
2022/07/28 13:48:04;;;;;;;4.93;1.38;;;;;;;;;;6200191;23;20020;-85
2022/07/28 13:50:31;;;;;;;4.13;1.45;;;;;;;;;;6187833;23;20100;-85
2022/07/28 13:53:00;;;;;;;6.13;1.52;;;;;;;;;;6215827;23;20012;-84
2022/07/28 13:55:27;;;;;;;3.00;1.20;;;;;;;;;;6181077;23;20106;-85
2022/07/28 13:57:53;;;;;;;2.63;1.05;;;;;;;;;;6214401;23;20027;-85
2022/07/28 14:00:19;;;;;;;3.97;1.45;;;;;;;;;;6237748;23;20454;-86
2022/07/28 14:02:54;;;;;;;2.95;1.40;;;;;;;;;;6188610;23;20024;-86
2022/07/28 14:05:20;;;;;;;2.13;1.27;;;;;;;;;;6181182;23;20521;-88
2022/07/28 14:07:47;;;;;;;8.60;1.50;;;;;;;;;;6149360;23;20032;-83
2022/07/28 14:10:19;;;;;;;6.22;1.25;;;;;;;;;;6191388;23;20020;-85
2022/07/28 14:12:53;;;;;;;2.95;1.40;;;;;;;;;;6181412;23;20252;-86
2022/07/28 14:15:21;;;;;;;7.03;1.80;;;;;;;;;;6129836;23;20020;-86
2022/07/28 14:17:53;;;;;;;2.35;1.27;;;;;;;;;;6128052;23;20022;-86
2022/07/28 14:20:21;;;;;;;4.55;1.40;;;;;;;;;;6210696;23;20053;-87
2022/07/28 14:22:47;;;;;;;5.53;1.42;;;;;;;;;;6154429;23;20021;-86
2022/07/28 14:25:13;;;;;;;4.57;1.30;;;;;;;;;;6228958;23;20043;-86
2022/07/28 14:27:53;;;;;;;1.83;1.08;;;;;;;;;;6213589;23;20028;-87
2022/07/28 14:30:50;;;;;;;4.95;1.70;;;;;;;;;;6115147;23;20012;-87
2022/07/28 14:34:24;;;;;;;3.55;1.58;;;;;;;;;;6185633;23;20016;-87
2022/07/28 14:37:53;;;;;;;;;;;;;;;;;;;;;
2022/07/28 14:41:13;;;;;;;;;;;;;;;;;;;;;
2022/07/28 14:43:58;;;;;;;5.47;1.25;;;;;;;;;;6097738;23;20696;-86
2022/07/28 14:46:24;;;;;;;2.13;1.20;;;;;;;;;;6064181;23;20025;-86
2022/07/28 14:49:51;;;;;;;3.38;1.10;;;;;;;;;;6088427;23;20017;-84
2022/07/28 14:52:52;;;;;;;3.53;1.40;;;;;;;;;;6088478;23;20026;-86
2022/07/28 14:55:42;;;;;;;4.28;1.30;;;;;;;;;;6100055;23;20084;-85
2022/07/28 14:58:13;;;;;;;3.58;1.33;;;;;;;;;;6059659;23;20029;-86
2022/07/28 15:00:39;;;;;;;3.10;1.33;;;;;;;;;;6197056;23;20051;-85
2022/07/28 15:03:05;;;;;;;2.78;0.98;;;;;;;;;;6212688;23;20068;-86
2022/07/28 15:05:45;;;;;;;1.70;1.15;;;;;;;;;;6196149;23;20087;-85
2022/07/28 15:08:11;;;;;;;6.88;1.33;;;;;;;;;;6185250;23;20354;-85
2022/07/28 15:10:37;;;;;;;3.80;1.20;;;;;;;;;;6175574;23;20462;-85